createdAt,value
2023-01-20T00:02:02.945Z,1.11
2023-01-20T00:04:34.468Z,1.07
2023-01-20T00:07:06.350Z,1.22
2023-01-20T00:09:37.864Z,1.29
2023-01-20T00:12:09.656Z,1.29
2023-01-20T00:14:41.271Z,1.27
2023-01-20T00:17:13.131Z,1.32
2023-01-20T00:19:44.659Z,1.32
2023-01-20T00:22:16.647Z,1.30
2023-01-20T00:24:48.207Z,1.39
2023-01-20T00:27:20.562Z,1.42
2023-01-20T00:29:52.145Z,1.46
2023-01-20T00:32:23.667Z,1.47
2023-01-20T00:34:55.168Z,1.48
2023-01-20T00:37:26.808Z,1.48
2023-01-20T00:39:58.321Z,1.46
2023-01-20T00:42:30.212Z,1.44
2023-01-20T00:45:01.769Z,1.38
2023-01-20T00:47:33.578Z,1.40
2023-01-20T00:50:05.074Z,1.45
2023-01-20T00:52:36.897Z,1.43
2023-01-20T00:55:08.410Z,1.44
2023-01-20T00:57:40.277Z,1.46
2023-01-20T01:00:11.793Z,1.50
2023-01-20T01:02:43.622Z,1.51
2023-01-20T01:05:15.400Z,1.50
2023-01-20T01:07:47.276Z,1.50
2023-01-20T01:10:18.787Z,1.42
2023-01-20T01:12:50.637Z,1.45
2023-01-20T01:15:22.223Z,1.47
2023-01-20T01:17:54.001Z,1.51
2023-01-20T01:20:25.515Z,1.43
2023-01-20T01:22:57.445Z,1.48
2023-01-20T01:25:28.964Z,1.43
2023-01-20T01:28:01.022Z,1.51
2023-01-20T01:30:32.568Z,1.55
2023-01-20T01:33:04.429Z,1.54
2023-01-20T01:35:35.945Z,1.56
2023-01-20T01:38:07.780Z,1.56
2023-01-20T01:40:39.371Z,1.55
2023-01-20T01:43:11.196Z,1.61
2023-01-20T01:45:42.741Z,1.62
2023-01-20T01:48:14.645Z,1.56
2023-01-20T01:50:46.154Z,1.44
2023-01-20T01:53:17.973Z,1.52
2023-01-20T01:55:49.543Z,1.58
2023-01-20T01:58:22.921Z,1.54
2023-01-20T02:00:54.512Z,1.44
2023-01-20T02:03:26.400Z,1.49
2023-01-20T02:05:57.900Z,1.47
2023-01-20T02:08:29.863Z,1.40
2023-01-20T02:11:01.373Z,1.35
2023-01-20T02:13:33.241Z,1.35
2023-01-20T02:16:04.760Z,1.38
2023-01-20T02:18:36.675Z,1.36
2023-01-20T02:21:08.213Z,1.35
2023-01-20T02:23:40.076Z,1.31
2023-01-20T02:26:11.603Z,1.34
2023-01-20T02:28:43.283Z,1.36
2023-01-20T02:31:14.826Z,1.36
2023-01-20T02:33:46.642Z,1.33
2023-01-20T02:36:18.146Z,1.29
2023-01-20T02:38:49.988Z,1.30
2023-01-20T02:41:21.487Z,1.25
2023-01-20T02:43:53.010Z,1.33
2023-01-20T02:46:24.500Z,1.36
2023-01-20T02:48:56.436Z,1.33
2023-01-20T02:51:27.907Z,1.32
2023-01-20T02:53:59.736Z,1.28
2023-01-20T02:56:31.222Z,1.26
2023-01-20T02:59:03.076Z,1.31
2023-01-20T03:01:34.661Z,1.38
2023-01-20T03:04:06.403Z,1.33
2023-01-20T03:06:38.008Z,1.36
2023-01-20T03:09:09.577Z,1.33
2023-01-20T03:11:41.074Z,1.31
2023-01-20T03:14:12.939Z,1.31
2023-01-20T03:16:48.153Z,1.32
2023-01-20T03:19:20.619Z,1.18
2023-01-20T03:21:52.251Z,1.19
2023-01-20T03:24:24.112Z,1.25
2023-01-20T03:26:55.608Z,1.32
2023-01-20T03:29:27.508Z,1.31
2023-01-20T03:31:59.054Z,1.29
2023-01-20T03:34:30.559Z,1.27
2023-01-20T03:37:02.097Z,1.22
2023-01-20T03:39:34.090Z,1.29
2023-01-20T03:42:08.706Z,1.29
2023-01-20T03:44:40.593Z,1.23
2023-01-20T03:47:12.355Z,1.18
2023-01-20T03:49:44.300Z,1.17
2023-01-20T03:52:15.858Z,1.21
2023-01-20T03:54:47.694Z,1.20
2023-01-20T03:57:19.194Z,1.29
2023-01-20T03:59:50.697Z,1.32
2023-01-20T04:02:22.309Z,1.32
2023-01-20T04:04:54.222Z,1.31
2023-01-20T04:07:25.795Z,1.14
2023-01-20T04:09:57.732Z,1.05
2023-01-20T04:12:29.226Z,1.06
2023-01-20T04:15:01.045Z,1.03
2023-01-20T04:17:32.597Z,0.95
2023-01-20T04:20:04.527Z,0.94
2023-01-20T04:22:36.014Z,0.90
2023-01-20T04:25:07.839Z,0.98
2023-01-20T04:27:39.349Z,0.92
2023-01-20T04:30:12.418Z,0.93
2023-01-20T04:32:43.923Z,1.02
2023-01-20T04:35:16.166Z,0.89
2023-01-20T04:37:48.311Z,0.88
2023-01-20T04:40:19.873Z,0.73
2023-01-20T04:42:51.757Z,0.85
2023-01-20T04:45:23.263Z,0.85
2023-01-20T04:47:55.125Z,0.86
2023-01-20T04:50:26.654Z,0.80
2023-01-20T04:55:51.245Z,0.66
2023-01-20T04:58:22.745Z,0.70
2023-01-20T05:00:54.583Z,0.70
2023-01-20T05:03:26.404Z,0.84
2023-01-20T05:05:57.902Z,0.76
2023-01-20T05:08:29.836Z,0.66
2023-01-20T05:11:01.332Z,0.68
2023-01-20T05:13:34.010Z,0.72
2023-01-20T05:16:05.586Z,0.63
2023-01-20T05:18:37.404Z,0.67
2023-01-20T05:21:09.055Z,0.53
2023-01-20T05:23:40.881Z,0.51
2023-01-20T05:26:12.573Z,0.55
2023-01-20T05:28:44.397Z,0.53
2023-01-20T05:31:16.045Z,0.60
2023-01-20T05:33:47.829Z,0.61
2023-01-20T05:36:19.346Z,0.60
2023-01-20T05:38:51.175Z,0.62
2023-01-20T05:41:22.683Z,0.62
2023-01-20T05:43:54.215Z,0.53
2023-01-20T05:46:25.726Z,0.64
2023-01-20T05:48:57.596Z,0.72
2023-01-20T05:51:29.224Z,0.79
2023-01-20T05:54:01.049Z,0.58
2023-01-20T05:56:32.542Z,0.69
2023-01-20T05:59:06.576Z,0.73
2023-01-20T06:01:38.143Z,0.69
2023-01-20T06:04:10.255Z,0.61
2023-01-20T06:06:41.801Z,0.66
2023-01-20T06:09:13.344Z,0.51
2023-01-20T06:11:44.895Z,0.54
2023-01-20T06:14:16.505Z,0.35
2023-01-20T06:16:48.028Z,0.34
2023-01-20T06:19:19.887Z,0.48
2023-01-20T06:21:53.477Z,0.38
2023-01-20T06:24:25.383Z,0.22
2023-01-20T06:26:56.917Z,0.27
2023-01-20T06:29:28.735Z,0.36
2023-01-20T06:32:00.281Z,0.42
2023-01-20T06:34:32.266Z,0.49
2023-01-20T06:37:03.842Z,0.36
2023-01-20T06:39:35.733Z,0.43
2023-01-20T06:42:07.288Z,0.42
2023-01-20T06:44:39.252Z,0.49
2023-01-20T06:47:10.743Z,0.48
2023-01-20T06:49:42.555Z,0.31
2023-01-20T06:52:14.073Z,0.20
2023-01-20T06:54:45.864Z,0.18
2023-01-20T06:57:17.348Z,0.02
2023-01-20T06:59:49.221Z,-0.08
2023-01-20T07:02:20.733Z,-0.07
2023-01-20T07:07:45.750Z,0.05
2023-01-20T07:10:17.618Z,-0.03
2023-01-20T07:12:49.138Z,-0.06
2023-01-20T07:15:20.962Z,0.07
2023-01-20T07:17:52.433Z,0.23
2023-01-20T07:20:24.125Z,0.25
2023-01-20T07:22:55.616Z,0.32
2023-01-20T07:25:27.435Z,0.34
2023-01-20T07:27:59.112Z,0.24
2023-01-20T07:30:30.920Z,0.14
2023-01-20T07:33:02.420Z,0.27
2023-01-20T07:35:34.172Z,0.20
2023-01-20T07:38:05.711Z,0.36
2023-01-20T07:40:37.489Z,0.43
2023-01-20T07:43:09.028Z,0.37
2023-01-20T07:45:40.975Z,0.45
2023-01-20T07:48:12.516Z,0.40
2023-01-20T07:50:44.484Z,0.35
2023-01-20T07:53:15.986Z,0.19
2023-01-20T07:55:47.800Z,0.22
2023-01-20T07:58:19.296Z,0.35
2023-01-20T08:00:51.412Z,0.19
2023-01-20T08:03:22.909Z,0.06
2023-01-20T08:05:54.663Z,0.15
2023-01-20T08:08:26.161Z,0.13
2023-01-20T08:10:58.629Z,0.24
2023-01-20T08:13:30.165Z,0.20
2023-01-20T08:16:01.668Z,0.42
2023-01-20T08:18:33.160Z,0.43
2023-01-20T08:21:08.260Z,0.58
2023-01-20T08:23:39.867Z,0.64
2023-01-20T08:26:11.753Z,0.82
2023-01-20T08:28:43.327Z,-0.83
2023-01-20T08:31:15.405Z,0.91
2023-01-20T08:33:47.105Z,1.08
2023-01-20T08:36:18.911Z,1.18
2023-01-20T08:38:50.424Z,1.23
2023-01-20T08:41:22.387Z,1.25
2023-01-20T08:43:53.904Z,1.23
2023-01-20T08:46:25.864Z,1.22
2023-01-20T08:48:57.415Z,1.11
2023-01-20T08:51:29.374Z,1.11
2023-01-20T08:54:00.901Z,1.12
2023-01-20T08:56:34.294Z,1.27
2023-01-20T08:59:05.818Z,1.23
2023-01-20T09:01:38.363Z,1.27
2023-01-20T09:04:09.905Z,1.28
2023-01-20T09:06:41.797Z,1.28
2023-01-20T09:09:13.297Z,1.43
2023-01-20T09:11:51.436Z,1.51
2023-01-20T09:14:23.125Z,1.58
2023-01-20T09:16:54.968Z,1.69
2023-01-20T09:19:26.469Z,1.63
2023-01-20T09:21:58.090Z,0.09
2023-01-20T09:24:29.655Z,1.47
2023-01-20T09:27:01.699Z,1.47
2023-01-20T09:29:33.339Z,1.60
2023-01-20T09:32:04.910Z,1.57
2023-01-20T09:34:36.528Z,1.75
2023-01-20T09:37:27.363Z,1.87
2023-01-20T09:40:18.186Z,1.84
2023-01-20T09:43:08.225Z,1.75
2023-01-20T09:45:39.737Z,1.58
2023-01-20T09:48:14.987Z,1.68
2023-01-20T09:51:05.620Z,0.04
2023-01-20T09:53:37.182Z,1.77
2023-01-20T09:56:08.930Z,1.84
2023-01-20T09:58:40.429Z,1.92
2023-01-20T10:01:12.337Z,1.84
2023-01-20T10:03:43.923Z,1.83
2023-01-20T10:06:16.492Z,1.99
2023-01-20T10:09:04.142Z,2.07
2023-01-20T10:11:37.167Z,2.27
2023-01-20T10:14:08.822Z,2.22
2023-01-20T10:16:40.751Z,2.12
2023-01-20T10:19:12.244Z,2.09
2023-01-20T10:21:44.202Z,2.00
2023-01-20T10:24:15.703Z,2.09
2023-01-20T10:26:47.534Z,2.05
2023-01-20T10:29:20.098Z,2.35
2023-01-20T10:31:51.998Z,2.53
2023-01-20T10:34:23.601Z,2.58
2023-01-20T10:36:56.439Z,2.67
2023-01-20T10:39:27.936Z,2.71
2023-01-20T10:41:59.760Z,2.80
2023-01-20T10:44:31.240Z,2.78
2023-01-20T10:47:03.081Z,2.68
2023-01-20T10:49:34.582Z,2.66
2023-01-20T10:52:06.425Z,2.74
2023-01-20T10:54:37.942Z,2.48
2023-01-20T10:57:09.818Z,2.33
2023-01-20T10:59:41.278Z,2.64
2023-01-20T11:02:13.143Z,2.72
2023-01-20T11:04:44.641Z,2.72
2023-01-20T11:07:16.524Z,2.50
2023-01-20T11:09:48.699Z,2.51
2023-01-20T11:12:20.449Z,2.47
2023-01-20T11:14:51.979Z,2.39
2023-01-20T11:17:23.938Z,2.34
2023-01-20T11:19:55.484Z,2.54
2023-01-20T11:22:27.385Z,2.53
2023-01-20T11:24:58.969Z,2.56
2023-01-20T11:27:30.780Z,2.39
2023-01-20T11:30:02.453Z,2.52
2023-01-20T11:32:34.208Z,2.62
2023-01-20T11:35:05.729Z,2.18
2023-01-20T11:37:37.804Z,1.94
2023-01-20T11:40:09.313Z,2.35
2023-01-20T11:42:41.133Z,2.65
2023-01-20T11:45:21.221Z,2.85
2023-01-20T11:47:53.497Z,3.05
2023-01-20T11:50:25.082Z,3.01
2023-01-20T11:52:57.154Z,3.05
2023-01-20T11:55:28.699Z,2.94
2023-01-20T11:58:00.567Z,2.79
2023-01-20T12:00:32.085Z,2.83
2023-01-20T12:03:03.968Z,3.00
2023-01-20T12:05:35.544Z,2.85
2023-01-20T12:08:07.513Z,2.81
2023-01-20T12:10:39.030Z,2.65
2023-01-20T12:13:10.932Z,2.72
2023-01-20T12:15:42.434Z,2.73
2023-01-20T12:18:14.313Z,2.75
2023-01-20T12:20:55.015Z,2.46
2023-01-20T12:23:34.259Z,2.71
2023-01-20T12:26:05.757Z,2.76
2023-01-20T12:28:37.630Z,2.92
2023-01-20T12:31:09.157Z,3.01
2023-01-20T12:33:41.065Z,3.04
2023-01-20T12:36:12.743Z,2.99
2023-01-20T12:38:44.310Z,2.80
2023-01-20T12:41:16.155Z,2.75
2023-01-20T12:43:47.707Z,2.73
2023-01-20T12:46:19.760Z,2.77
2023-01-20T12:48:51.346Z,2.58
2023-01-20T12:51:23.229Z,2.47
2023-01-20T12:53:56.230Z,2.54
2023-01-20T12:56:29.047Z,2.63
2023-01-20T12:59:00.639Z,2.71
2023-01-20T13:01:32.497Z,2.73
2023-01-20T13:04:04.061Z,2.83
2023-01-20T13:06:36.308Z,2.94
2023-01-20T13:09:07.928Z,2.85
2023-01-20T13:11:39.764Z,2.93
2023-01-20T13:14:11.981Z,2.78
2023-01-20T13:16:44.065Z,2.85
2023-01-20T13:19:15.656Z,3.01
2023-01-20T13:21:59.394Z,2.91
2023-01-20T13:24:38.248Z,3.03
2023-01-20T13:27:11.058Z,2.99
2023-01-20T13:29:42.952Z,2.88
2023-01-20T13:32:14.847Z,2.60
2023-01-20T13:34:46.405Z,2.53
2023-01-20T13:37:18.247Z,2.67
2023-01-20T13:39:49.749Z,2.74
2023-01-20T13:42:21.673Z,2.79
2023-01-20T13:44:53.178Z,2.76
2023-01-20T13:47:25.221Z,2.74
2023-01-20T13:49:56.783Z,2.81
2023-01-20T13:52:28.634Z,2.59
2023-01-20T13:55:00.157Z,2.65
2023-01-20T13:57:31.723Z,2.61
2023-01-20T14:00:03.237Z,2.58
2023-01-20T14:02:35.183Z,2.59
2023-01-20T14:05:06.713Z,2.45
2023-01-20T14:07:38.536Z,2.43
2023-01-20T14:10:10.122Z,2.38
2023-01-20T14:12:42.062Z,2.30
2023-01-20T14:15:13.627Z,2.42
2023-01-20T14:17:45.535Z,2.54
2023-01-20T14:20:17.332Z,2.56
2023-01-20T14:22:49.559Z,2.43
2023-01-20T14:25:21.068Z,2.41
2023-01-20T14:27:52.935Z,2.22
2023-01-20T14:30:24.584Z,2.15
2023-01-20T14:32:56.162Z,2.28
2023-01-20T14:35:28.012Z,2.28
2023-01-20T14:37:59.900Z,2.33
2023-01-20T14:40:31.421Z,2.35
2023-01-20T14:43:03.349Z,2.40
2023-01-20T14:45:34.885Z,2.37
2023-01-20T14:48:06.807Z,2.26
2023-01-20T14:50:38.573Z,2.23
2023-01-20T14:53:10.531Z,2.19
2023-01-20T14:55:44.303Z,2.09
2023-01-20T14:58:16.079Z,2.01
2023-01-20T15:00:47.634Z,1.95
2023-01-20T15:03:19.557Z,1.84
2023-01-20T15:05:51.408Z,1.80
2023-01-20T15:08:25.957Z,1.75
2023-01-20T15:10:57.977Z,1.73
2023-01-20T15:13:31.541Z,1.73
2023-01-20T15:16:03.099Z,1.65
2023-01-20T15:18:34.674Z,1.66
2023-01-20T15:21:16.638Z,1.66
2023-01-20T15:23:52.632Z,1.60
2023-01-20T15:26:24.254Z,1.55
2023-01-20T15:28:55.915Z,1.49
2023-01-20T15:31:27.513Z,1.45
2023-01-20T15:33:59.450Z,1.38
2023-01-20T15:36:33.117Z,1.31
2023-01-20T15:39:04.684Z,1.25
2023-01-20T15:41:36.245Z,1.17
2023-01-20T15:44:08.106Z,0.32
2023-01-20T15:46:39.750Z,1.04
2023-01-20T15:49:11.760Z,0.97
2023-01-20T15:51:43.289Z,0.88
2023-01-20T15:54:15.042Z,0.80
2023-01-20T15:56:46.578Z,0.72
2023-01-20T15:59:18.554Z,0.66
2023-01-20T16:01:50.619Z,0.60
2023-01-20T16:04:22.269Z,0.56
2023-01-20T16:06:53.849Z,0.55
2023-01-20T16:09:25.681Z,0.55
2023-01-20T16:11:57.315Z,0.57
2023-01-20T16:14:28.893Z,0.58
2023-01-20T16:17:00.459Z,0.60
2023-01-20T16:19:32.318Z,0.61
2023-01-20T16:22:03.880Z,0.61
2023-01-20T16:24:35.510Z,0.65
2023-01-20T16:27:07.080Z,0.65
2023-01-20T16:29:39.052Z,0.66
2023-01-20T16:32:10.607Z,0.64
2023-01-20T16:34:42.803Z,0.62
2023-01-20T16:37:14.469Z,0.61
2023-01-20T16:39:46.012Z,0.58
2023-01-20T16:42:17.634Z,0.55
2023-01-20T16:44:49.211Z,0.55
2023-01-20T16:47:20.718Z,0.56
2023-01-20T16:49:52.548Z,0.55
2023-01-20T16:52:24.915Z,0.57
2023-01-20T16:54:56.526Z,0.60
2023-01-20T16:57:28.535Z,0.62
2023-01-20T17:00:00.153Z,0.65
2023-01-20T17:02:32.130Z,0.66
2023-01-20T17:05:03.699Z,0.67
2023-01-20T17:07:35.567Z,0.68
2023-01-20T17:10:07.090Z,0.68
2023-01-20T17:12:39.137Z,0.66
2023-01-20T17:15:10.735Z,0.66
2023-01-20T17:17:42.859Z,0.63
2023-01-20T17:20:14.677Z,0.63
2023-01-20T17:22:46.752Z,0.61
2023-01-20T17:25:18.258Z,0.65
2023-01-20T17:27:49.839Z,0.61
2023-01-20T17:30:21.577Z,0.52
2023-01-20T17:32:54.124Z,0.55
2023-01-20T17:35:25.694Z,0.54
2023-01-20T17:37:57.679Z,0.62
2023-01-20T17:40:29.281Z,0.59
2023-01-20T17:43:01.217Z,0.67
2023-01-20T17:45:32.855Z,0.68
2023-01-20T17:48:04.852Z,0.72
2023-01-20T17:50:36.474Z,0.74
2023-01-20T17:53:08.432Z,0.77
2023-01-20T17:55:39.968Z,0.76
2023-01-20T17:58:11.935Z,0.83
2023-01-20T18:00:43.482Z,0.78
2023-01-20T18:03:15.406Z,0.81
2023-01-20T18:05:46.979Z,0.83
2023-01-20T18:08:18.573Z,0.80
2023-01-20T18:10:50.128Z,0.79
2023-01-20T18:13:21.977Z,0.73
2023-01-20T18:15:53.526Z,0.76
2023-01-20T18:18:25.584Z,0.82
2023-01-20T18:20:59.221Z,0.82
2023-01-20T18:23:31.053Z,0.84
2023-01-20T18:26:02.606Z,0.82
2023-01-20T18:28:34.502Z,0.84
2023-01-20T18:31:09.026Z,0.86
2023-01-20T18:33:44.524Z,0.82
2023-01-20T18:36:16.239Z,0.81
2023-01-20T18:38:48.095Z,0.79
2023-01-20T18:41:19.682Z,0.82
2023-01-20T18:43:51.612Z,0.80
2023-01-20T18:46:23.155Z,0.82
2023-01-20T18:48:55.693Z,0.85
2023-01-20T18:51:27.293Z,0.90
2023-01-20T18:53:59.488Z,0.89
2023-01-20T18:56:31.059Z,0.89
2023-01-20T18:59:02.999Z,0.88
2023-01-20T19:01:34.635Z,0.33
2023-01-20T19:04:06.231Z,0.87
2023-01-20T19:06:37.817Z,0.81
2023-01-20T19:09:09.356Z,0.71
2023-01-20T19:11:40.955Z,0.74
2023-01-20T19:14:13.079Z,0.79
2023-01-20T19:16:49.440Z,0.74
2023-01-20T19:19:21.137Z,0.77
2023-01-20T19:21:52.842Z,0.75
2023-01-20T19:24:29.229Z,0.74
2023-01-20T19:27:00.943Z,0.71
2023-01-20T19:29:32.833Z,0.66
2023-01-20T19:32:04.362Z,0.66
2023-01-20T19:34:35.918Z,0.67
2023-01-20T19:37:07.576Z,0.67
2023-01-20T19:39:39.133Z,0.64
2023-01-20T19:42:10.716Z,0.54
2023-01-20T19:44:42.507Z,0.47
2023-01-20T19:47:14.101Z,0.47
2023-01-20T19:49:45.967Z,0.52
2023-01-20T19:52:17.512Z,0.48
2023-01-20T19:54:51.604Z,0.48
2023-01-20T19:57:23.450Z,0.54
2023-01-20T19:59:55.558Z,0.39
2023-01-20T20:02:27.558Z,0.46
2023-01-20T20:04:59.413Z,0.32
2023-01-20T20:07:30.969Z,0.36
2023-01-20T20:10:02.521Z,0.32
2023-01-20T20:12:34.091Z,0.31
2023-01-20T20:15:05.939Z,0.32
2023-01-20T20:17:37.438Z,0.30
2023-01-20T20:20:09.430Z,0.35
2023-01-20T20:22:41.097Z,0.26
2023-01-20T20:25:12.898Z,0.30
2023-01-20T20:27:44.495Z,-0.28
2023-01-20T20:30:16.849Z,0.36
2023-01-20T20:32:48.741Z,0.33
2023-01-20T20:35:20.916Z,-0.17
2023-01-20T20:37:52.456Z,0.31
2023-01-20T20:40:25.437Z,0.26
2023-01-20T20:42:57.041Z,0.24
2023-01-20T20:45:28.967Z,0.28
2023-01-20T20:48:00.502Z,0.10
2023-01-20T20:50:32.341Z,0.09
2023-01-20T20:53:03.900Z,0.16
2023-01-20T20:55:35.763Z,0.24
2023-01-20T20:58:07.272Z,0.13
2023-01-20T21:00:39.267Z,0.15
2023-01-20T21:03:11.104Z,0.20
2023-01-20T21:05:43.243Z,0.11
2023-01-20T21:08:14.825Z,0.05
2023-01-20T21:10:46.743Z,0.02
2023-01-20T21:13:18.250Z,0.01
2023-01-20T21:15:50.143Z,-0.03
2023-01-20T21:18:21.760Z,-0.09
2023-01-20T21:20:53.611Z,-0.23
2023-01-20T21:23:25.148Z,-0.20
2023-01-20T21:25:57.188Z,-0.18
2023-01-20T21:28:28.786Z,-0.28
2023-01-20T21:31:00.726Z,-0.39
2023-01-20T21:33:32.228Z,-0.43
2023-01-20T21:36:04.120Z,-0.34
2023-01-20T21:38:35.643Z,-0.31
2023-01-20T21:41:08.592Z,-0.39
2023-01-20T21:43:59.279Z,-0.39
2023-01-20T21:46:30.880Z,-0.40
2023-01-20T21:49:21.650Z,-0.47
2023-01-20T21:52:11.710Z,-0.41
2023-01-20T21:54:45.593Z,-0.43
2023-01-20T21:57:17.365Z,-0.48
2023-01-20T21:59:49.043Z,-0.41
2023-01-20T22:02:20.660Z,-0.29
2023-01-20T22:04:52.196Z,-0.21
2023-01-20T22:07:23.758Z,-0.21
2023-01-20T22:09:58.022Z,-0.22
2023-01-20T22:12:33.689Z,-0.16
2023-01-20T22:15:05.665Z,-0.16
2023-01-20T22:17:37.204Z,-0.13
2023-01-20T22:20:09.029Z,-0.19
2023-01-20T22:22:40.589Z,-0.28
2023-01-20T22:25:12.441Z,-0.23
2023-01-20T22:27:43.991Z,-0.21
2023-01-20T22:30:16.151Z,-0.34
2023-01-20T22:32:47.880Z,-0.39
2023-01-20T22:35:19.427Z,-0.26
2023-01-20T22:37:50.939Z,-0.26
2023-01-20T22:40:22.495Z,-0.25
2023-01-20T22:42:54.031Z,-0.33
2023-01-20T22:45:25.886Z,-0.41
2023-01-20T22:47:57.431Z,-0.44
2023-01-20T22:50:29.420Z,-0.49
2023-01-20T22:53:00.975Z,-0.58
2023-01-20T22:55:32.753Z,-0.56
2023-01-20T22:58:04.304Z,-0.64
2023-01-20T23:00:36.176Z,-0.60
2023-01-20T23:03:07.675Z,-0.55
2023-01-20T23:05:40.969Z,-0.46
2023-01-20T23:08:12.578Z,-0.47
2023-01-20T23:10:47.259Z,-1.66
2023-01-20T23:13:18.832Z,-0.46
2023-01-20T23:15:50.362Z,-0.61
2023-01-20T23:18:21.935Z,-0.61
2023-01-20T23:20:53.937Z,-0.59
2023-01-20T23:23:25.556Z,-0.63
2023-01-20T23:25:57.122Z,-0.59
2023-01-20T23:28:28.651Z,-0.67
2023-01-20T23:31:00.649Z,-0.61
2023-01-20T23:33:32.217Z,-0.59
2023-01-20T23:36:03.778Z,-0.63
2023-01-20T23:38:35.353Z,-0.60
2023-01-20T23:41:07.219Z,-0.60
2023-01-20T23:43:38.846Z,-0.59
2023-01-20T23:46:10.692Z,-0.57
2023-01-20T23:48:42.276Z,-0.55
2023-01-20T23:51:14.229Z,-0.63
2023-01-20T23:53:45.835Z,-0.57
2023-01-20T23:56:17.810Z,-0.58
2023-01-20T23:58:49.387Z,-0.59
